createdAt,value
2022-10-07T00:02:11.994Z,14.07
2022-10-07T00:04:45.134Z,11.30
2022-10-07T00:07:12.704Z,11.88
2022-10-07T00:09:39.853Z,16.42
2022-10-07T00:12:07.013Z,12.82
2022-10-07T00:14:34.390Z,18.15
2022-10-07T00:17:01.673Z,14.35
2022-10-07T00:19:28.895Z,12.25
2022-10-07T00:21:56.147Z,13.20
2022-10-07T00:24:23.345Z,16.15
2022-10-07T00:26:50.592Z,12.40
2022-10-07T00:29:17.763Z,10.15
2022-10-07T00:31:44.993Z,12.55
2022-10-07T00:34:12.651Z,14.25
2022-10-07T00:36:39.796Z,14.82
2022-10-07T00:39:07.827Z,13.23
2022-10-07T00:41:36.414Z,13.00
2022-10-07T00:44:22.514Z,13.27
2022-10-07T00:46:49.716Z,12.45
2022-10-07T00:49:16.890Z,13.50
2022-10-07T00:51:44.104Z,11.50
2022-10-07T00:54:13.031Z,9.73
2022-10-07T00:56:40.610Z,12.05
2022-10-07T00:59:08.016Z,11.88
2022-10-07T01:01:35.248Z,13.73
2022-10-07T01:04:02.403Z,11.43
2022-10-07T01:06:30.346Z,13.88
2022-10-07T01:08:57.583Z,11.40
2022-10-07T01:11:27.487Z,12.50
2022-10-07T01:13:55.622Z,14.82
2022-10-07T01:16:23.330Z,14.75
2022-10-07T01:18:58.291Z,9.88
2022-10-07T01:21:25.371Z,11.38
2022-10-07T01:24:11.297Z,11.00
2022-10-07T01:26:39.062Z,12.73
2022-10-07T01:29:11.946Z,14.20
2022-10-07T01:31:48.330Z,11.23
2022-10-07T01:34:15.927Z,12.18
2022-10-07T01:36:45.006Z,9.63
2022-10-07T01:39:13.706Z,13.57
2022-10-07T01:41:40.894Z,12.50
2022-10-07T01:44:09.782Z,12.77
2022-10-07T01:46:38.039Z,12.63
2022-10-07T01:49:05.847Z,12.70
2022-10-07T01:51:35.635Z,13.90
2022-10-07T01:54:02.867Z,15.95
2022-10-07T01:56:33.041Z,13.43
2022-10-07T01:59:07.821Z,11.65
2022-10-07T02:01:53.913Z,10.40
2022-10-07T02:04:31.058Z,12.07
2022-10-07T02:06:58.203Z,11.40
2022-10-07T02:09:35.399Z,6.68
2022-10-07T02:12:09.864Z,12.15
2022-10-07T02:14:40.112Z,9.45
2022-10-07T02:17:10.657Z,11.05
2022-10-07T02:19:43.889Z,14.60
2022-10-07T02:22:12.028Z,11.13
2022-10-07T02:24:39.736Z,12.60
2022-10-07T02:27:08.759Z,10.98
2022-10-07T02:29:36.829Z,11.85
2022-10-07T02:32:07.023Z,11.25
2022-10-07T02:34:35.031Z,9.95
2022-10-07T02:37:05.495Z,7.13
2022-10-07T02:39:32.757Z,11.80
2022-10-07T02:41:59.919Z,13.02
2022-10-07T02:44:46.447Z,12.20
2022-10-07T02:47:14.184Z,11.70
2022-10-07T02:49:42.629Z,11.80
2022-10-07T02:52:15.015Z,10.40
2022-10-07T02:54:48.048Z,10.00
2022-10-07T02:57:18.077Z,11.80
2022-10-07T02:59:46.594Z,17.08
2022-10-07T03:02:16.344Z,16.77
2022-10-07T03:04:43.871Z,13.23
2022-10-07T03:07:13.784Z,19.00
2022-10-07T03:09:41.500Z,14.30
2022-10-07T03:12:09.014Z,13.32
2022-10-07T03:14:36.160Z,12.13
2022-10-07T03:17:03.502Z,10.82
2022-10-07T03:19:30.610Z,15.60
2022-10-07T03:21:57.711Z,10.93
2022-10-07T03:24:24.866Z,11.63
2022-10-07T03:26:52.015Z,10.73
2022-10-07T03:29:19.727Z,10.38
2022-10-07T03:31:46.908Z,13.85
2022-10-07T03:34:14.070Z,13.73
2022-10-07T03:36:41.426Z,9.90
2022-10-07T03:39:08.555Z,7.32
2022-10-07T03:41:35.694Z,10.60
2022-10-07T03:44:02.812Z,11.70
2022-10-07T03:46:30.041Z,10.88
2022-10-07T03:48:58.446Z,12.32
2022-10-07T03:51:25.576Z,13.95
2022-10-07T03:53:57.477Z,11.90
2022-10-07T03:56:24.844Z,12.05
2022-10-07T03:58:52.770Z,10.30
2022-10-07T04:01:20.004Z,10.50
2022-10-07T04:03:47.435Z,7.68
2022-10-07T04:06:14.635Z,10.10
2022-10-07T04:08:42.544Z,9.00
2022-10-07T04:11:09.832Z,13.15
2022-10-07T04:13:36.993Z,9.57
2022-10-07T04:16:08.672Z,8.75
2022-10-07T04:18:36.217Z,10.20
2022-10-07T04:21:03.354Z,9.05
2022-10-07T04:23:30.426Z,10.10
2022-10-07T04:25:57.469Z,10.95
2022-10-07T04:28:26.323Z,7.28
2022-10-07T04:30:54.146Z,11.35
2022-10-07T04:33:22.125Z,13.20
2022-10-07T04:35:50.194Z,10.38
2022-10-07T04:38:18.408Z,12.25
2022-10-07T04:40:47.815Z,12.63
2022-10-07T04:43:19.437Z,7.75
2022-10-07T04:48:14.011Z,10.50
2022-10-07T04:50:41.127Z,11.93
2022-10-07T04:53:08.737Z,12.57
2022-10-07T04:55:37.300Z,16.60
2022-10-07T04:58:04.826Z,13.93
2022-10-07T05:00:32.149Z,14.15
2022-10-07T05:02:59.330Z,11.77
2022-10-07T05:05:27.273Z,11.10
2022-10-07T05:07:55.135Z,25.17
2022-10-07T05:10:22.808Z,13.88
2022-10-07T05:12:55.151Z,15.73
2022-10-07T05:15:23.697Z,9.00
2022-10-07T05:17:54.141Z,37.00
2022-10-07T05:20:21.589Z,15.13
2022-10-07T05:22:49.063Z,6.70
2022-10-07T05:25:16.256Z,7.78
2022-10-07T05:27:43.680Z,5.25
2022-10-07T05:30:11.395Z,8.25
2022-10-07T05:32:38.473Z,8.00
2022-10-07T05:35:05.772Z,10.57
2022-10-07T05:37:33.622Z,7.15
2022-10-07T05:40:00.815Z,7.00
2022-10-07T05:42:27.945Z,6.57
2022-10-07T05:44:55.134Z,5.07
2022-10-07T05:47:22.325Z,6.63
2022-10-07T05:49:49.432Z,3.25
2022-10-07T05:52:16.595Z,5.68
2022-10-07T05:54:43.701Z,9.13
2022-10-07T05:57:10.867Z,4.22
2022-10-07T05:59:37.967Z,5.05
2022-10-07T06:02:05.205Z,5.38
2022-10-07T06:04:32.371Z,4.30
2022-10-07T06:06:59.663Z,7.35
2022-10-07T06:09:45.503Z,4.07
2022-10-07T06:12:31.701Z,3.15
2022-10-07T06:14:59.376Z,3.67
2022-10-07T06:17:26.475Z,5.70
2022-10-07T06:19:53.621Z,3.78
2022-10-07T06:22:21.850Z,7.68
2022-10-07T06:24:52.018Z,2.97
2022-10-07T06:27:19.200Z,4.63
2022-10-07T06:29:46.367Z,3.95
2022-10-07T06:32:13.917Z,6.30
2022-10-07T06:34:41.075Z,7.38
2022-10-07T06:37:08.224Z,7.55
2022-10-07T06:39:35.349Z,6.95
2022-10-07T06:42:02.420Z,15.85
2022-10-07T06:44:31.160Z,25.50
2022-10-07T06:46:58.356Z,20.38
2022-10-07T06:49:25.532Z,28.45
2022-10-07T06:51:52.636Z,12.90
2022-10-07T06:54:19.779Z,14.63
2022-10-07T06:56:46.887Z,8.75
2022-10-07T06:59:14.043Z,8.20
2022-10-07T07:01:41.376Z,11.05
2022-10-07T07:04:08.527Z,12.75
2022-10-07T07:06:39.130Z,12.38
2022-10-07T07:09:06.328Z,10.90
2022-10-07T07:11:37.012Z,14.52
2022-10-07T07:14:08.358Z,7.82
2022-10-07T07:19:08.491Z,6.70
2022-10-07T07:21:37.926Z,10.43
2022-10-07T07:24:05.297Z,13.00
2022-10-07T07:26:32.580Z,12.73
2022-10-07T07:29:01.266Z,10.00
2022-10-07T07:31:29.437Z,9.90
2022-10-07T07:34:01.784Z,9.07
2022-10-07T07:36:30.062Z,12.32
2022-10-07T07:38:58.277Z,7.97
2022-10-07T07:41:27.326Z,9.13
2022-10-07T07:43:55.554Z,8.57
2022-10-07T07:46:23.908Z,8.98
2022-10-07T07:48:51.964Z,21.35
2022-10-07T07:51:20.026Z,10.80
2022-10-07T07:53:49.945Z,14.35
2022-10-07T07:56:17.806Z,13.48
2022-10-07T07:58:45.151Z,19.98
2022-10-07T08:01:14.387Z,17.33
2022-10-07T08:03:46.431Z,10.88
2022-10-07T08:06:14.922Z,9.27
2022-10-07T08:08:44.846Z,6.22
2022-10-07T08:11:13.141Z,8.30
2022-10-07T08:13:41.311Z,7.30
2022-10-07T08:16:09.289Z,8.00
2022-10-07T08:18:39.019Z,5.53
2022-10-07T08:21:07.726Z,7.32
2022-10-07T08:23:35.833Z,9.50
2022-10-07T08:26:04.111Z,9.18
2022-10-07T08:28:31.714Z,6.13
2022-10-07T08:31:03.396Z,8.80
2022-10-07T08:33:32.538Z,7.07
2022-10-07T08:36:00.865Z,6.20
2022-10-07T08:38:32.073Z,9.75
2022-10-07T08:43:26.333Z,8.57
2022-10-07T08:45:55.894Z,8.27
2022-10-07T08:48:25.918Z,10.07
2022-10-07T08:51:05.263Z,7.45
2022-10-07T08:53:36.766Z,8.88
2022-10-07T08:56:13.168Z,7.75
2022-10-07T08:59:00.654Z,10.30
2022-10-07T09:01:37.098Z,5.60
2022-10-07T09:04:07.271Z,5.32
2022-10-07T09:06:42.403Z,6.85
2022-10-07T09:09:18.692Z,9.20
2022-10-07T09:11:47.944Z,10.88
2022-10-07T09:14:18.131Z,8.77
2022-10-07T09:16:46.894Z,10.33
2022-10-07T09:19:21.808Z,11.82
2022-10-07T09:21:50.375Z,7.10
2022-10-07T09:24:25.133Z,6.68
2022-10-07T09:26:56.209Z,4.38
2022-10-07T09:29:24.708Z,7.72
2022-10-07T09:31:53.438Z,7.10
2022-10-07T09:34:23.306Z,6.22
2022-10-07T09:37:09.141Z,7.88
2022-10-07T09:39:36.291Z,9.20
2022-10-07T09:42:04.765Z,5.85
2022-10-07T09:44:31.973Z,6.80
2022-10-07T09:46:59.840Z,4.80
2022-10-07T09:49:29.755Z,6.35
2022-10-07T09:52:26.017Z,9.73
2022-10-07T09:54:54.157Z,5.07
2022-10-07T09:57:24.378Z,6.72
2022-10-07T09:59:51.528Z,5.70
2022-10-07T10:02:24.002Z,8.07
2022-10-07T10:04:55.295Z,6.55
2022-10-07T10:09:53.530Z,5.55
2022-10-07T10:14:49.709Z,5.55
2022-10-07T10:17:30.756Z,8.95
2022-10-07T10:20:17.849Z,5.70
2022-10-07T10:22:45.146Z,4.88
2022-10-07T10:25:31.231Z,5.82
2022-10-07T10:28:21.268Z,5.38
2022-10-07T10:30:54.726Z,5.03
2022-10-07T10:33:38.512Z,5.80
2022-10-07T10:36:18.461Z,4.22
2022-10-07T10:39:01.365Z,8.55
2022-10-07T10:41:31.452Z,6.05
2022-10-07T10:44:24.664Z,5.30
2022-10-07T10:46:52.176Z,6.05
2022-10-07T10:49:19.740Z,6.93
2022-10-07T10:51:46.838Z,5.85
2022-10-07T10:54:36.064Z,4.47
2022-10-07T10:57:06.335Z,4.53
2022-10-07T10:59:37.535Z,4.73
2022-10-07T11:02:04.657Z,4.40
2022-10-07T11:04:54.179Z,5.38
2022-10-07T11:07:29.682Z,5.10
2022-10-07T11:09:59.765Z,5.88
2022-10-07T11:12:39.869Z,4.78
2022-10-07T11:15:20.143Z,4.82
2022-10-07T11:17:49.879Z,4.60
2022-10-07T11:20:30.392Z,3.35
2022-10-07T11:23:07.533Z,3.65
2022-10-07T11:25:42.974Z,4.15
2022-10-07T11:28:24.621Z,4.25
2022-10-07T11:30:55.407Z,3.05
2022-10-07T11:33:32.018Z,5.43
2022-10-07T11:36:03.319Z,6.20
2022-10-07T11:38:33.674Z,4.65
2022-10-07T11:41:09.673Z,5.95
2022-10-07T11:43:48.005Z,4.13
2022-10-07T11:46:27.356Z,3.65
2022-10-07T11:48:54.573Z,5.60
2022-10-07T11:51:36.126Z,3.45
2022-10-07T11:54:06.450Z,4.05
2022-10-07T11:56:38.904Z,3.73
2022-10-07T11:59:07.383Z,4.47
2022-10-07T12:01:41.384Z,3.08
2022-10-07T12:04:46.905Z,4.50
2022-10-07T12:07:33.046Z,4.72
2022-10-07T12:10:00.153Z,3.78
2022-10-07T12:12:47.606Z,7.20
2022-10-07T12:15:24.158Z,5.43
2022-10-07T12:17:54.822Z,7.53
2022-10-07T12:20:43.038Z,3.50
2022-10-07T12:23:22.169Z,3.83
2022-10-07T12:25:50.357Z,4.63
2022-10-07T12:28:35.331Z,5.32
2022-10-07T12:31:07.422Z,3.65
2022-10-07T12:33:36.079Z,6.70
2022-10-07T12:36:21.629Z,5.32
2022-10-07T12:38:57.951Z,4.43
2022-10-07T12:41:25.271Z,6.43
2022-10-07T12:44:12.619Z,5.15
2022-10-07T12:46:39.687Z,7.90
2022-10-07T12:49:15.765Z,6.97
2022-10-07T12:51:44.532Z,6.25
2022-10-07T12:54:32.107Z,4.88
2022-10-07T12:56:59.741Z,3.47
2022-10-07T12:59:47.796Z,3.33
2022-10-07T13:02:26.761Z,6.53
2022-10-07T13:05:00.031Z,3.10
2022-10-07T13:07:30.005Z,3.92
2022-10-07T13:09:59.834Z,3.15
2022-10-07T13:12:38.836Z,3.60
2022-10-07T13:15:08.661Z,3.22
2022-10-07T13:17:40.705Z,4.68
2022-10-07T13:20:07.777Z,5.75
2022-10-07T13:22:35.201Z,6.43
2022-10-07T13:25:03.996Z,3.70
2022-10-07T13:27:32.091Z,5.90
2022-10-07T13:30:00.671Z,4.22
2022-10-07T13:32:30.126Z,6.20
2022-10-07T13:34:58.092Z,3.00
2022-10-07T13:37:30.254Z,5.22
2022-10-07T13:39:58.375Z,4.80
2022-10-07T13:42:29.420Z,4.28
2022-10-07T13:45:03.462Z,4.35
2022-10-07T13:47:33.912Z,4.28
2022-10-07T13:50:02.131Z,2.92
2022-10-07T13:52:29.260Z,3.20
2022-10-07T13:54:56.383Z,10.13
2022-10-07T13:57:23.936Z,28.95
2022-10-07T13:59:51.811Z,3.78
2022-10-07T14:02:20.550Z,4.22
2022-10-07T14:05:04.860Z,4.18
2022-10-07T14:07:32.208Z,5.13
2022-10-07T14:09:59.364Z,3.95
2022-10-07T14:12:31.493Z,4.90
2022-10-07T14:15:03.573Z,5.10
2022-10-07T14:17:40.919Z,3.60
2022-10-07T14:20:20.019Z,5.50
2022-10-07T14:22:57.476Z,7.97
2022-10-07T14:25:32.646Z,4.07
2022-10-07T14:28:02.757Z,3.17
2022-10-07T14:30:56.335Z,5.07
2022-10-07T14:33:44.538Z,5.00
2022-10-07T14:36:14.696Z,4.47
2022-10-07T14:38:42.835Z,4.35
2022-10-07T14:41:10.746Z,4.18
2022-10-07T14:43:39.837Z,5.72
2022-10-07T14:46:11.972Z,4.10
2022-10-07T14:48:39.195Z,5.80
2022-10-07T14:51:06.500Z,3.58
2022-10-07T14:53:34.281Z,3.83
2022-10-07T14:56:01.446Z,7.43
2022-10-07T14:58:29.237Z,6.93
2022-10-07T15:00:56.426Z,7.65
2022-10-07T15:03:24.338Z,5.20
2022-10-07T15:05:51.604Z,7.88
2022-10-07T15:08:18.802Z,7.53
2022-10-07T15:10:46.249Z,8.00
2022-10-07T15:13:14.265Z,5.57
2022-10-07T15:15:42.617Z,5.45
2022-10-07T15:18:11.496Z,6.20
2022-10-07T15:20:39.514Z,5.55
2022-10-07T15:23:07.660Z,8.35
2022-10-07T15:25:35.577Z,8.13
2022-10-07T15:28:02.951Z,6.43
2022-10-07T15:30:30.209Z,6.68
2022-10-07T15:32:58.188Z,9.13
2022-10-07T15:35:27.010Z,7.25
2022-10-07T15:37:54.745Z,9.27
2022-10-07T15:40:21.996Z,8.68
2022-10-07T15:42:49.286Z,12.82
2022-10-07T15:45:16.544Z,13.43
2022-10-07T15:47:43.717Z,13.77
2022-10-07T15:50:11.002Z,47.78
2022-10-07T15:52:38.169Z,15.35
2022-10-07T15:55:07.896Z,53.33
2022-10-07T15:57:35.408Z,64.93
2022-10-07T16:00:02.798Z,74.13
2022-10-07T16:02:30.057Z,95.88
2022-10-07T16:04:57.210Z,50.67
2022-10-07T16:07:24.403Z,142.73
2022-10-07T16:09:51.563Z,52.63
2022-10-07T16:12:18.731Z,42.67
2022-10-07T16:14:47.434Z,67.45
2022-10-07T16:17:14.537Z,85.13
2022-10-07T16:19:41.657Z,41.47
2022-10-07T16:22:09.525Z,30.95
2022-10-07T16:24:37.638Z,20.65
2022-10-07T16:27:04.836Z,12.90
2022-10-07T16:29:50.551Z,12.02
2022-10-07T16:32:17.799Z,12.18
2022-10-07T16:34:45.255Z,16.30
2022-10-07T16:37:12.612Z,16.50
2022-10-07T16:39:40.051Z,24.38
2022-10-07T16:42:07.522Z,32.75
2022-10-07T16:44:35.381Z,12.93
2022-10-07T16:47:03.014Z,15.10
2022-10-07T16:49:30.256Z,15.00
2022-10-07T16:51:58.010Z,16.35
2022-10-07T16:54:25.308Z,15.07
2022-10-07T16:56:52.939Z,14.07
2022-10-07T16:59:24.455Z,13.77
2022-10-07T17:01:53.303Z,12.85
2022-10-07T17:04:20.558Z,19.30
2022-10-07T17:06:47.938Z,12.07
2022-10-07T17:09:15.104Z,16.58
2022-10-07T17:11:42.278Z,15.98
2022-10-07T17:14:17.557Z,16.30
2022-10-07T17:16:45.742Z,13.98
2022-10-07T17:19:14.253Z,15.18
2022-10-07T17:21:42.261Z,10.32
2022-10-07T17:24:09.933Z,16.75
2022-10-07T17:26:38.007Z,14.32
2022-10-07T17:29:10.846Z,13.60
2022-10-07T17:31:39.430Z,13.55
2022-10-07T17:34:07.204Z,12.43
2022-10-07T17:36:34.766Z,15.30
2022-10-07T17:39:02.006Z,16.95
2022-10-07T17:41:30.642Z,11.07
2022-10-07T17:43:59.216Z,12.23
2022-10-07T17:46:28.126Z,13.20
2022-10-07T17:48:56.377Z,13.60
2022-10-07T17:51:27.366Z,16.80
2022-10-07T17:53:55.552Z,18.33
2022-10-07T17:56:22.737Z,16.48
2022-10-07T17:58:50.372Z,16.42
2022-10-07T18:01:26.413Z,19.85
2022-10-07T18:03:57.625Z,14.95
2022-10-07T18:06:26.103Z,16.70
2022-10-07T18:08:53.247Z,16.60
2022-10-07T18:11:20.425Z,16.35
2022-10-07T18:14:06.419Z,13.73
2022-10-07T18:16:34.567Z,13.70
2022-10-07T18:19:02.100Z,16.40
2022-10-07T18:21:30.602Z,13.05
2022-10-07T18:23:58.048Z,15.35
2022-10-07T18:26:25.238Z,13.43
2022-10-07T18:28:52.330Z,14.80
2022-10-07T18:31:19.735Z,15.93
2022-10-07T18:33:46.967Z,19.58
2022-10-07T18:36:15.490Z,15.80
2022-10-07T18:38:43.453Z,17.35
2022-10-07T18:41:12.481Z,17.77
2022-10-07T18:43:39.632Z,15.88
2022-10-07T18:46:11.206Z,14.20
2022-10-07T18:48:39.279Z,14.68
2022-10-07T18:51:06.937Z,12.93
2022-10-07T18:53:35.718Z,13.65
2022-10-07T18:56:07.206Z,17.10
2022-10-07T19:01:05.914Z,15.77
2022-10-07T19:06:08.804Z,16.17
2022-10-07T19:08:36.202Z,14.38
2022-10-07T19:11:10.349Z,14.38
2022-10-07T19:13:58.935Z,15.07
2022-10-07T19:16:34.825Z,14.63
2022-10-07T19:19:06.689Z,17.92
2022-10-07T19:21:34.397Z,16.00
2022-10-07T19:24:01.729Z,13.82
2022-10-07T19:26:30.029Z,13.15
2022-10-07T19:28:57.139Z,14.43
2022-10-07T19:31:24.413Z,15.52
2022-10-07T19:34:04.195Z,17.10
2022-10-07T19:36:32.155Z,13.60
2022-10-07T19:38:59.570Z,18.88
2022-10-07T19:41:28.755Z,13.63
2022-10-07T19:43:56.015Z,13.48
2022-10-07T19:46:25.113Z,12.02
2022-10-07T19:48:56.953Z,16.33
2022-10-07T19:51:24.141Z,14.02
2022-10-07T19:53:51.516Z,14.25
2022-10-07T19:56:23.107Z,15.15
2022-10-07T19:58:51.299Z,12.88
2022-10-07T20:01:19.498Z,14.05
2022-10-07T20:03:46.653Z,13.05
2022-10-07T20:06:14.897Z,14.45
2022-10-07T20:08:46.559Z,15.70
2022-10-07T20:11:14.255Z,13.63
2022-10-07T20:13:41.620Z,16.85
2022-10-07T20:16:08.929Z,12.98
2022-10-07T20:18:37.394Z,14.27
2022-10-07T20:21:08.695Z,12.13
2022-10-07T20:23:36.348Z,17.20
2022-10-07T20:26:06.913Z,15.25
2022-10-07T20:28:40.472Z,19.70
2022-10-07T20:31:12.665Z,17.00
2022-10-07T20:33:41.980Z,17.63
2022-10-07T20:36:09.919Z,16.50
2022-10-07T20:38:56.395Z,12.85
2022-10-07T20:41:42.853Z,10.48
2022-10-07T20:44:10.719Z,15.65
2022-10-07T20:46:38.024Z,14.60
2022-10-07T20:49:21.372Z,13.38
2022-10-07T20:51:52.760Z,15.82
2022-10-07T20:54:20.619Z,14.93
2022-10-07T20:56:48.888Z,15.30
2022-10-07T20:59:16.002Z,13.55
2022-10-07T21:01:44.289Z,12.57
2022-10-07T21:04:12.550Z,16.05
2022-10-07T21:06:39.956Z,13.55
2022-10-07T21:09:07.505Z,11.77
2022-10-07T21:11:34.968Z,13.90
2022-10-07T21:14:02.252Z,12.50
2022-10-07T21:16:30.442Z,11.90
2022-10-07T21:18:58.175Z,12.85
2022-10-07T21:21:25.565Z,12.77
2022-10-07T21:23:52.965Z,12.15
2022-10-07T21:26:20.433Z,13.32
2022-10-07T21:28:50.638Z,10.25
2022-10-07T21:31:18.597Z,11.15
2022-10-07T21:33:46.906Z,10.80
2022-10-07T21:36:17.804Z,14.98
2022-10-07T21:38:45.914Z,13.23
2022-10-07T21:41:14.446Z,12.70
2022-10-07T21:43:42.290Z,11.77
2022-10-07T21:46:09.845Z,12.73
2022-10-07T21:48:37.230Z,12.98
2022-10-07T21:51:09.375Z,12.90
2022-10-07T21:53:36.864Z,13.73
2022-10-07T21:56:05.396Z,9.80
2022-10-07T21:58:33.400Z,15.32
2022-10-07T22:01:04.558Z,15.38
2022-10-07T22:03:31.762Z,12.57
2022-10-07T22:06:02.584Z,12.23
2022-10-07T22:08:35.645Z,11.27
2022-10-07T22:11:02.774Z,11.40
2022-10-07T22:13:30.271Z,11.80
2022-10-07T22:16:00.584Z,11.38
2022-10-07T22:18:28.297Z,12.40
2022-10-07T22:20:55.422Z,12.25
2022-10-07T22:23:22.492Z,16.75
2022-10-07T22:25:51.248Z,15.20
2022-10-07T22:28:18.354Z,12.00
2022-10-07T22:30:45.547Z,13.25
2022-10-07T22:33:15.274Z,18.33
2022-10-07T22:35:44.106Z,10.77
2022-10-07T22:38:11.223Z,12.32
2022-10-07T22:40:38.540Z,14.18
2022-10-07T22:43:06.017Z,13.52
2022-10-07T22:45:33.164Z,11.10
2022-10-07T22:48:00.244Z,13.40
2022-10-07T22:50:27.374Z,14.18
2022-10-07T22:52:56.713Z,11.35
2022-10-07T22:55:24.392Z,14.52
2022-10-07T22:57:51.789Z,13.20
2022-10-07T23:00:18.880Z,13.57
2022-10-07T23:02:46.468Z,14.93
2022-10-07T23:05:13.769Z,16.63
2022-10-07T23:07:40.835Z,16.90
2022-10-07T23:10:08.280Z,18.63
2022-10-07T23:12:35.352Z,19.35
2022-10-07T23:15:03.040Z,14.27
2022-10-07T23:17:31.171Z,15.75
2022-10-07T23:19:59.136Z,14.57
2022-10-07T23:22:26.731Z,12.07
2022-10-07T23:24:53.830Z,18.42
2022-10-07T23:27:20.919Z,17.92
2022-10-07T23:29:48.002Z,13.93
2022-10-07T23:32:15.052Z,11.52
2022-10-07T23:34:42.499Z,13.32
2022-10-07T23:37:09.623Z,14.68
2022-10-07T23:39:36.713Z,14.52
2022-10-07T23:42:03.846Z,13.15
2022-10-07T23:44:30.881Z,12.50
2022-10-07T23:46:58.010Z,13.95
2022-10-07T23:49:25.097Z,14.70
2022-10-07T23:51:52.265Z,15.05
2022-10-07T23:54:19.317Z,12.10
2022-10-07T23:56:46.368Z,13.40
2022-10-07T23:59:14.221Z,16.48
